Detall de PIREP

Printer-friendly versionPDF version

[2017/08/07 05:06:00]
Flight IATA:CT2103
Pilot Number:041
Company ICAO:CAT
Aircraft Type:B738/F
PAX:121
Departing Airport: LEAM
Destination Airport: LEVC
Alternate Airport:LEMD
Online: VATSIM
Route:DOSEK G850 RESTU UN860 NARGO
Flight Level:FL300
No Slew and time accel
No pause
Crash detect
Detect pilot in Cockpit between each 30 and 45 minutes
05:06 Zero fuel Weight: 135600 Lbs, Fuel Weight: 10930 Lbs
05:06 VATSIM:LEAM 070430Z 01001KT CAVOK 27/23 Q1015
05:06 VATSIM:LEVC 070430Z VRB02KT 9999 FEW014 SCT020 25/22 Q1015 NOSIG
05:06 VOICE CATALONIAN
05:06 Parking Brakes off
05:14 Take-off
05:14 Take off Weight: 145661 Lbs
05:14 Wind: 193º @ 008 Knots Heading: 072º
05:14 POS N36º 50´ 43´´ W002º 21´ 51´´
05:14 Gear Up: 168 Knots
05:14 Flaps:3 at 168 Knots
05:14 Flaps:2 at 170 Knots
05:15 Flaps:1 at 194 Knots
05:15 Flaps:0 at 205 Knots
05:29 Wind:249º@030 Knots Heading: 024º Ground Speed: 452 Knots Altitude 22224 ft
05:40 Flaps:1 at 245 Knots
05:40 Flaps:2 at 241 Knots
05:40 Flaps:3 at 235 Knots
05:41 Flaps:4 at 215 Knots
05:44 Wind:307º@002 Knots Heading: 055º Ground Speed: 213 Knots Altitude 3490 ft
05:47 Flaps:5 at 204 Knots
05:47 Flaps:6 at 193 Knots
05:48 Flaps:8 at 158 Knots
05:48 Gear Down: 157 Knots
05:50 TouchDown:Rate -93 ft/min Speed: 129 Knots
05:50 VATSIM:LEVC 070530Z VRB02KT 9999 BKN016 25/22 Q1016 NOSIG
05:50 Land
05:50 Wind:073º@009 Knots
05:50 Heading: 292º
05:50 Flight Duration: 00:36
05:50 Landing Weight: 140939 Lbs
05:50 POS N39º 29´ 28´´ W000º 29´ 11´´
05:54 Parking brakes on
05:54 Block to Block Duration: 00:48
05:54 Final Fuel: 4936 Lbls
05:54 Spent Fuel: 5994 Lbls
05:54 Flight Length: 195 NM
05:54 TOD Land Length: 195 NM

Exportar CSV

Powered by Drupal - Modified by Danger4k